sensor_id;sensor_type;location;lat;lon;timestamp;P1;durP1;ratioP1;P2;durP2;ratioP2
25443;SDS011;13368;52.346;4.678;2022-12-07T00:00:00;7.0;;;3.2;;
25443;SDS011;13368;52.346;4.678;2022-12-07T00:05:00;7.0;;;3.0;;
25443;SDS011;13368;52.346;4.678;2022-12-07T00:10:00;8.6;;;3.3;;
25443;SDS011;13368;52.346;4.678;2022-12-07T00:15:00;9.0;;;2.5;;
25443;SDS011;13368;52.346;4.678;2022-12-07T00:20:00;7.7;;;2.8;;
25443;SDS011;13368;52.346;4.678;2022-12-07T00:25:00;7.6;;;2.9;;
25443;SDS011;13368;52.346;4.678;2022-12-07T00:30:00;10.5;;;3.6;;
25443;SDS011;13368;52.346;4.678;2022-12-07T00:35:00;7.7;;;2.5;;
25443;SDS011;13368;52.346;4.678;2022-12-07T00:40:00;8.4;;;2.3;;
25443;SDS011;13368;52.346;4.678;2022-12-07T00:45:00;8.3;;;2.3;;
25443;SDS011;13368;52.346;4.678;2022-12-07T00:50:00;9.9;;;2.9;;
25443;SDS011;13368;52.346;4.678;2022-12-07T00:55:00;8.3;;;2.8;;
25443;SDS011;13368;52.346;4.678;2022-12-07T01:00:00;7.5;;;2.9;;
25443;SDS011;13368;52.346;4.678;2022-12-07T01:05:00;7.1;;;2.3;;
25443;SDS011;13368;52.346;4.678;2022-12-07T01:10:00;10.6;;;2.9;;
25443;SDS011;13368;52.346;4.678;2022-12-07T01:15:00;6.4;;;2.3;;
25443;SDS011;13368;52.346;4.678;2022-12-07T01:20:00;12.4;;;2.4;;
25443;SDS011;13368;52.346;4.678;2022-12-07T01:25:00;9.2;;;2.4;;
25443;SDS011;13368;52.346;4.678;2022-12-07T01:30:00;6.5;;;2.3;;
25443;SDS011;13368;52.346;4.678;2022-12-07T01:35:00;7.6;;;2.3;;
25443;SDS011;13368;52.346;4.678;2022-12-07T01:40:00;7.1;;;2.2;;
25443;SDS011;13368;52.346;4.678;2022-12-07T01:50:00;10.1;;;2.5;;
25443;SDS011;13368;52.346;4.678;2022-12-07T01:55:00;9.8;;;2.4;;
25443;SDS011;13368;52.346;4.678;2022-12-07T02:00:00;11.0;;;2.9;;
25443;SDS011;13368;52.346;4.678;2022-12-07T02:05:00;5.2;;;2.5;;
25443;SDS011;13368;52.346;4.678;2022-12-07T02:15:00;9.2;;;3.2;;
25443;SDS011;13368;52.346;4.678;2022-12-07T02:20:02;7.4;;;2.8;;
25443;SDS011;13368;52.346;4.678;2022-12-07T02:25:02;8.0;;;2.6;;
25443;SDS011;13368;52.346;4.678;2022-12-07T02:30:00;9.7;;;2.9;;
25443;SDS011;13368;52.346;4.678;2022-12-07T02:35:02;8.2;;;2.6;;
25443;SDS011;13368;52.346;4.678;2022-12-07T02:40:01;7.1;;;3.1;;
25443;SDS011;13368;52.346;4.678;2022-12-07T02:45:00;10.5;;;2.9;;
25443;SDS011;13368;52.346;4.678;2022-12-07T02:50:00;7.5;;;3.6;;
25443;SDS011;13368;52.346;4.678;2022-12-07T02:55:00;10.5;;;3.2;;
25443;SDS011;13368;52.346;4.678;2022-12-07T03:00:01;7.4;;;2.7;;
25443;SDS011;13368;52.346;4.678;2022-12-07T03:05:03;10.0;;;2.2;;
25443;SDS011;13368;52.346;4.678;2022-12-07T03:10:00;14.4;;;2.5;;
25443;SDS011;13368;52.346;4.678;2022-12-07T03:15:02;11.6;;;3.0;;
25443;SDS011;13368;52.346;4.678;2022-12-07T03:20:00;9.5;;;2.8;;
25443;SDS011;13368;52.346;4.678;2022-12-07T03:25:00;10.1;;;3.0;;
25443;SDS011;13368;52.346;4.678;2022-12-07T03:30:00;7.7;;;2.3;;
25443;SDS011;13368;52.346;4.678;2022-12-07T03:35:00;8.2;;;2.4;;
25443;SDS011;13368;52.346;4.678;2022-12-07T03:40:02;10.2;;;2.8;;
25443;SDS011;13368;52.346;4.678;2022-12-07T03:45:00;6.5;;;2.4;;
25443;SDS011;13368;52.346;4.678;2022-12-07T03:50:00;6.5;;;2.5;;
25443;SDS011;13368;52.346;4.678;2022-12-07T03:55:00;9.0;;;2.3;;
25443;SDS011;13368;52.346;4.678;2022-12-07T04:00:00;8.7;;;3.1;;
25443;SDS011;13368;52.346;4.678;2022-12-07T04:05:00;8.8;;;3.7;;
25443;SDS011;13368;52.346;4.678;2022-12-07T04:10:00;11.1;;;3.7;;
25443;SDS011;13368;52.346;4.678;2022-12-07T04:15:00;9.8;;;3.3;;
25443;SDS011;13368;52.346;4.678;2022-12-07T04:20:00;11.3;;;3.3;;
25443;SDS011;13368;52.346;4.678;2022-12-07T04:25:00;10.7;;;3.1;;
25443;SDS011;13368;52.346;4.678;2022-12-07T04:30:00;9.2;;;2.4;;
25443;SDS011;13368;52.346;4.678;2022-12-07T04:35:00;13.5;;;2.8;;
25443;SDS011;13368;52.346;4.678;2022-12-07T04:40:00;10.2;;;2.8;;
25443;SDS011;13368;52.346;4.678;2022-12-07T04:45:00;8.1;;;3.0;;
25443;SDS011;13368;52.346;4.678;2022-12-07T04:50:00;6.8;;;2.3;;
25443;SDS011;13368;52.346;4.678;2022-12-07T04:55:00;14.0;;;2.2;;
25443;SDS011;13368;52.346;4.678;2022-12-07T05:00:00;2.8;;;2.1;;
25443;SDS011;13368;52.346;4.678;2022-12-07T05:05:00;5.8;;;2.0;;
25443;SDS011;13368;52.346;4.678;2022-12-07T05:10:00;11.0;;;2.7;;
25443;SDS011;13368;52.346;4.678;2022-12-07T05:15:00;7.8;;;2.0;;
25443;SDS011;13368;52.346;4.678;2022-12-07T05:20:00;6.9;;;2.3;;
25443;SDS011;13368;52.346;4.678;2022-12-07T05:25:00;7.2;;;2.3;;
25443;SDS011;13368;52.346;4.678;2022-12-07T05:30:00;8.5;;;2.3;;
25443;SDS011;13368;52.346;4.678;2022-12-07T05:35:00;3.7;;;1.9;;
25443;SDS011;13368;52.346;4.678;2022-12-07T05:40:00;6.6;;;2.2;;
25443;SDS011;13368;52.346;4.678;2022-12-07T05:45:00;5.1;;;2.4;;
25443;SDS011;13368;52.346;4.678;2022-12-07T05:50:00;5.9;;;2.3;;
25443;SDS011;13368;52.346;4.678;2022-12-07T05:55:00;7.0;;;2.3;;
25443;SDS011;13368;52.346;4.678;2022-12-07T06:00:00;6.3;;;2.7;;
25443;SDS011;13368;52.346;4.678;2022-12-07T06:05:00;8.7;;;2.7;;
25443;SDS011;13368;52.346;4.678;2022-12-07T06:10:00;6.2;;;2.4;;
25443;SDS011;13368;52.346;4.678;2022-12-07T06:15:00;5.7;;;2.2;;
25443;SDS011;13368;52.346;4.678;2022-12-07T06:20:00;6.6;;;2.2;;
25443;SDS011;13368;52.346;4.678;2022-12-07T06:25:00;7.0;;;2.7;;
25443;SDS011;13368;52.346;4.678;2022-12-07T06:30:00;5.4;;;2.9;;
25443;SDS011;13368;52.346;4.678;2022-12-07T06:35:00;6.1;;;3.2;;
25443;SDS011;13368;52.346;4.678;2022-12-07T06:40:00;10.8;;;3.6;;
25443;SDS011;13368;52.346;4.678;2022-12-07T06:45:00;9.4;;;4.3;;
25443;SDS011;13368;52.346;4.678;2022-12-07T06:50:00;6.5;;;3.9;;
25443;SDS011;13368;52.346;4.678;2022-12-07T06:55:00;13.9;;;4.2;;
25443;SDS011;13368;52.346;4.678;2022-12-07T07:00:00;11.0;;;3.9;;
25443;SDS011;13368;52.346;4.678;2022-12-07T07:05:00;9.0;;;4.3;;
25443;SDS011;13368;52.346;4.678;2022-12-07T07:10:00;12.8;;;4.1;;
25443;SDS011;13368;52.346;4.678;2022-12-07T07:15:00;7.5;;;3.5;;
25443;SDS011;13368;52.346;4.678;2022-12-07T07:20:00;7.8;;;2.8;;
25443;SDS011;13368;52.346;4.678;2022-12-07T07:25:00;7.8;;;3.0;;
25443;SDS011;13368;52.346;4.678;2022-12-07T07:30:00;8.4;;;2.8;;
25443;SDS011;13368;52.346;4.678;2022-12-07T07:35:00;11.2;;;5.1;;
25443;SDS011;13368;52.346;4.678;2022-12-07T07:40:00;10.9;;;5.0;;
25443;SDS011;13368;52.346;4.678;2022-12-07T07:45:00;18.4;;;3.5;;
25443;SDS011;13368;52.346;4.678;2022-12-07T07:50:00;11.7;;;3.0;;
25443;SDS011;13368;52.346;4.678;2022-12-07T07:55:00;7.6;;;2.5;;
25443;SDS011;13368;52.346;4.678;2022-12-07T08:00:00;9.2;;;3.1;;
25443;SDS011;13368;52.346;4.678;2022-12-07T08:05:00;10.6;;;3.0;;
25443;SDS011;13368;52.346;4.678;2022-12-07T08:10:00;10.3;;;3.4;;
25443;SDS011;13368;52.346;4.678;2022-12-07T08:15:00;11.6;;;4.0;;
25443;SDS011;13368;52.346;4.678;2022-12-07T08:20:00;8.6;;;3.4;;
25443;SDS011;13368;52.346;4.678;2022-12-07T08:25:00;11.5;;;3.5;;
25443;SDS011;13368;52.346;4.678;2022-12-07T08:30:00;9.4;;;3.1;;
25443;SDS011;13368;52.346;4.678;2022-12-07T08:35:00;20.2;;;4.5;;
25443;SDS011;13368;52.346;4.678;2022-12-07T08:40:00;9.6;;;4.0;;
25443;SDS011;13368;52.346;4.678;2022-12-07T08:45:00;9.9;;;3.7;;
25443;SDS011;13368;52.346;4.678;2022-12-07T08:50:00;8.8;;;3.4;;
25443;SDS011;13368;52.346;4.678;2022-12-07T08:55:00;11.5;;;3.6;;
25443;SDS011;13368;52.346;4.678;2022-12-07T09:00:00;14.4;;;3.9;;
25443;SDS011;13368;52.346;4.678;2022-12-07T09:05:00;7.3;;;3.4;;
25443;SDS011;13368;52.346;4.678;2022-12-07T09:10:00;8.7;;;3.6;;
25443;SDS011;13368;52.346;4.678;2022-12-07T09:15:00;9.1;;;3.9;;
25443;SDS011;13368;52.346;4.678;2022-12-07T09:20:00;6.2;;;3.2;;
25443;SDS011;13368;52.346;4.678;2022-12-07T09:25:00;9.7;;;2.8;;
25443;SDS011;13368;52.346;4.678;2022-12-07T09:30:00;10.0;;;3.2;;
25443;SDS011;13368;52.346;4.678;2022-12-07T09:35:00;9.3;;;3.5;;
25443;SDS011;13368;52.346;4.678;2022-12-07T09:40:00;11.8;;;3.8;;
25443;SDS011;13368;52.346;4.678;2022-12-07T09:45:00;9.6;;;3.4;;
25443;SDS011;13368;52.346;4.678;2022-12-07T09:50:03;9.6;;;3.1;;
25443;SDS011;13368;52.346;4.678;2022-12-07T09:55:00;12.1;;;3.7;;
25443;SDS011;13368;52.346;4.678;2022-12-07T10:00:01;8.7;;;3.5;;
25443;SDS011;13368;52.346;4.678;2022-12-07T10:05:00;10.0;;;3.3;;
25443;SDS011;13368;52.346;4.678;2022-12-07T10:10:01;13.6;;;3.8;;
25443;SDS011;13368;52.346;4.678;2022-12-07T10:15:00;9.9;;;3.7;;
25443;SDS011;13368;52.346;4.678;2022-12-07T10:20:08;8.8;;;4.0;;
25443;SDS011;13368;52.346;4.678;2022-12-07T10:25:07;9.8;;;3.8;;
25443;SDS011;13368;52.346;4.678;2022-12-07T10:30:01;13.7;;;4.5;;
25443;SDS011;13368;52.346;4.678;2022-12-07T10:40:00;12.2;;;4.5;;
25443;SDS011;13368;52.346;4.678;2022-12-07T10:45:07;11.4;;;4.2;;
25443;SDS011;13368;52.346;4.678;2022-12-07T10:55:04;11.3;;;4.4;;
25443;SDS011;13368;52.346;4.678;2022-12-07T11:00:01;12.4;;;4.8;;
25443;SDS011;13368;52.346;4.678;2022-12-07T11:05:02;15.1;;;4.2;;
25443;SDS011;13368;52.346;4.678;2022-12-07T11:10:02;12.3;;;4.8;;
25443;SDS011;13368;52.346;4.678;2022-12-07T11:15:01;14.6;;;5.2;;
25443;SDS011;13368;52.346;4.678;2022-12-07T11:20:01;8.4;;;2.7;;
25443;SDS011;13368;52.346;4.678;2022-12-07T11:25:01;4.7;;;1.7;;
25443;SDS011;13368;52.346;4.678;2022-12-07T11:30:09;8.4;;;1.9;;
25443;SDS011;13368;52.346;4.678;2022-12-07T11:35:03;5.0;;;2.0;;
25443;SDS011;13368;52.346;4.678;2022-12-07T11:40:00;9.2;;;2.5;;
25443;SDS011;13368;52.346;4.678;2022-12-07T11:45:00;4.0;;;2.2;;
25443;SDS011;13368;52.346;4.678;2022-12-07T11:50:02;4.4;;;2.5;;
25443;SDS011;13368;52.346;4.678;2022-12-07T11:55:00;9.7;;;2.7;;
25443;SDS011;13368;52.346;4.678;2022-12-07T12:00:01;4.6;;;2.2;;
25443;SDS011;13368;52.346;4.678;2022-12-07T12:05:02;8.2;;;2.9;;
25443;SDS011;13368;52.346;4.678;2022-12-07T12:10:00;8.5;;;2.6;;
25443;SDS011;13368;52.346;4.678;2022-12-07T12:15:04;5.6;;;2.2;;
25443;SDS011;13368;52.346;4.678;2022-12-07T12:20:01;5.4;;;2.2;;
25443;SDS011;13368;52.346;4.678;2022-12-07T12:25:00;3.7;;;2.1;;
25443;SDS011;13368;52.346;4.678;2022-12-07T12:30:00;2.7;;;1.6;;
25443;SDS011;13368;52.346;4.678;2022-12-07T12:35:02;5.0;;;2.3;;
25443;SDS011;13368;52.346;4.678;2022-12-07T12:50:11;7.0;;;2.5;;
25443;SDS011;13368;52.346;4.678;2022-12-07T12:55:00;7.9;;;1.9;;
25443;SDS011;13368;52.346;4.678;2022-12-07T13:00:00;8.9;;;2.4;;
25443;SDS011;13368;52.346;4.678;2022-12-07T13:05:00;5.0;;;2.0;;
25443;SDS011;13368;52.346;4.678;2022-12-07T13:10:00;3.6;;;2.2;;
25443;SDS011;13368;52.346;4.678;2022-12-07T13:15:00;8.5;;;1.9;;
25443;SDS011;13368;52.346;4.678;2022-12-07T13:20:00;5.8;;;2.8;;
25443;SDS011;13368;52.346;4.678;2022-12-07T13:25:02;10.8;;;2.7;;
25443;SDS011;13368;52.346;4.678;2022-12-07T13:30:00;7.5;;;2.4;;
25443;SDS011;13368;52.346;4.678;2022-12-07T13:35:00;12.3;;;3.1;;
25443;SDS011;13368;52.346;4.678;2022-12-07T13:40:00;11.7;;;2.8;;
25443;SDS011;13368;52.346;4.678;2022-12-07T13:45:00;10.2;;;2.8;;
25443;SDS011;13368;52.346;4.678;2022-12-07T13:50:00;6.1;;;2.9;;
25443;SDS011;13368;52.346;4.678;2022-12-07T13:55:00;14.6;;;3.5;;
25443;SDS011;13368;52.346;4.678;2022-12-07T14:00:00;10.0;;;2.5;;
25443;SDS011;13368;52.346;4.678;2022-12-07T14:05:07;9.1;;;3.1;;
25443;SDS011;13368;52.346;4.678;2022-12-07T14:10:00;6.4;;;2.7;;
25443;SDS011;13368;52.346;4.678;2022-12-07T14:15:00;5.8;;;2.4;;
25443;SDS011;13368;52.346;4.678;2022-12-07T14:20:00;6.3;;;2.6;;
25443;SDS011;13368;52.346;4.678;2022-12-07T14:25:09;10.7;;;3.2;;
25443;SDS011;13368;52.346;4.678;2022-12-07T14:30:00;7.4;;;2.2;;
25443;SDS011;13368;52.346;4.678;2022-12-07T14:35:01;5.4;;;2.7;;
25443;SDS011;13368;52.346;4.678;2022-12-07T14:40:00;5.3;;;2.4;;
25443;SDS011;13368;52.346;4.678;2022-12-07T14:45:00;5.6;;;2.2;;
25443;SDS011;13368;52.346;4.678;2022-12-07T14:50:00;5.4;;;2.0;;
25443;SDS011;13368;52.346;4.678;2022-12-07T14:55:00;5.1;;;2.0;;
25443;SDS011;13368;52.346;4.678;2022-12-07T15:00:00;5.0;;;1.7;;
25443;SDS011;13368;52.346;4.678;2022-12-07T15:05:00;7.3;;;2.7;;
25443;SDS011;13368;52.346;4.678;2022-12-07T15:10:00;6.5;;;2.1;;
25443;SDS011;13368;52.346;4.678;2022-12-07T15:15:00;3.1;;;2.0;;
25443;SDS011;13368;52.346;4.678;2022-12-07T15:20:00;6.8;;;2.8;;
25443;SDS011;13368;52.346;4.678;2022-12-07T15:25:00;6.8;;;2.4;;
25443;SDS011;13368;52.346;4.678;2022-12-07T15:30:00;4.6;;;2.1;;
25443;SDS011;13368;52.346;4.678;2022-12-07T15:35:00;5.3;;;2.3;;
25443;SDS011;13368;52.346;4.678;2022-12-07T15:40:00;9.0;;;2.8;;
25443;SDS011;13368;52.346;4.678;2022-12-07T15:45:00;6.4;;;2.7;;
25443;SDS011;13368;52.346;4.678;2022-12-07T15:50:00;7.0;;;2.7;;
25443;SDS011;13368;52.346;4.678;2022-12-07T15:55:00;14.3;;;2.7;;
25443;SDS011;13368;52.346;4.678;2022-12-07T16:00:00;13.5;;;4.7;;
25443;SDS011;13368;52.346;4.678;2022-12-07T16:05:00;13.7;;;4.4;;
25443;SDS011;13368;52.346;4.678;2022-12-07T16:10:00;8.4;;;3.1;;
25443;SDS011;13368;52.346;4.678;2022-12-07T16:15:00;6.8;;;2.7;;
25443;SDS011;13368;52.346;4.678;2022-12-07T16:20:00;11.7;;;3.2;;
25443;SDS011;13368;52.346;4.678;2022-12-07T16:25:00;11.1;;;4.0;;
25443;SDS011;13368;52.346;4.678;2022-12-07T16:30:00;7.0;;;2.8;;
25443;SDS011;13368;52.346;4.678;2022-12-07T16:35:00;10.2;;;2.8;;
25443;SDS011;13368;52.346;4.678;2022-12-07T16:40:00;11.4;;;3.6;;
25443;SDS011;13368;52.346;4.678;2022-12-07T16:45:00;11.1;;;3.8;;
25443;SDS011;13368;52.346;4.678;2022-12-07T16:50:00;7.8;;;2.8;;
25443;SDS011;13368;52.346;4.678;2022-12-07T16:55:00;12.1;;;3.8;;
25443;SDS011;13368;52.346;4.678;2022-12-07T17:00:00;7.1;;;2.6;;
25443;SDS011;13368;52.346;4.678;2022-12-07T17:05:00;5.8;;;2.6;;
25443;SDS011;13368;52.346;4.678;2022-12-07T17:10:00;7.9;;;3.0;;
25443;SDS011;13368;52.346;4.678;2022-12-07T17:15:00;8.1;;;2.1;;
25443;SDS011;13368;52.346;4.678;2022-12-07T17:20:00;6.3;;;2.3;;
25443;SDS011;13368;52.346;4.678;2022-12-07T17:25:00;5.5;;;2.3;;
25443;SDS011;13368;52.346;4.678;2022-12-07T17:30:00;6.8;;;2.9;;
25443;SDS011;13368;52.346;4.678;2022-12-07T17:35:00;4.9;;;2.5;;
25443;SDS011;13368;52.346;4.678;2022-12-07T17:40:00;12.3;;;3.3;;
25443;SDS011;13368;52.346;4.678;2022-12-07T17:45:00;9.6;;;2.6;;
25443;SDS011;13368;52.346;4.678;2022-12-07T17:50:00;9.7;;;2.7;;
25443;SDS011;13368;52.346;4.678;2022-12-07T17:55:00;8.3;;;2.6;;
25443;SDS011;13368;52.346;4.678;2022-12-07T18:00:00;11.1;;;3.0;;
25443;SDS011;13368;52.346;4.678;2022-12-07T18:05:00;10.0;;;3.5;;
25443;SDS011;13368;52.346;4.678;2022-12-07T18:10:00;9.7;;;4.0;;
25443;SDS011;13368;52.346;4.678;2022-12-07T18:15:00;7.5;;;3.4;;
25443;SDS011;13368;52.346;4.678;2022-12-07T18:20:00;13.4;;;4.2;;
25443;SDS011;13368;52.346;4.678;2022-12-07T18:25:00;8.6;;;3.6;;
25443;SDS011;13368;52.346;4.678;2022-12-07T18:30:00;7.1;;;3.2;;
25443;SDS011;13368;52.346;4.678;2022-12-07T18:35:00;6.2;;;2.9;;
25443;SDS011;13368;52.346;4.678;2022-12-07T18:40:00;8.0;;;3.5;;
25443;SDS011;13368;52.346;4.678;2022-12-07T18:45:00;9.1;;;3.7;;
25443;SDS011;13368;52.346;4.678;2022-12-07T18:50:00;7.8;;;3.6;;
25443;SDS011;13368;52.346;4.678;2022-12-07T18:55:00;5.6;;;2.6;;
25443;SDS011;13368;52.346;4.678;2022-12-07T19:00:00;6.4;;;2.2;;
25443;SDS011;13368;52.346;4.678;2022-12-07T19:05:00;4.7;;;2.1;;
25443;SDS011;13368;52.346;4.678;2022-12-07T19:10:00;6.2;;;2.0;;
25443;SDS011;13368;52.346;4.678;2022-12-07T19:15:00;3.8;;;2.0;;
25443;SDS011;13368;52.346;4.678;2022-12-07T19:20:00;3.5;;;2.3;;
25443;SDS011;13368;52.346;4.678;2022-12-07T19:25:00;4.0;;;2.1;;
25443;SDS011;13368;52.346;4.678;2022-12-07T19:30:00;5.7;;;2.3;;
25443;SDS011;13368;52.346;4.678;2022-12-07T19:35:00;5.3;;;2.8;;
25443;SDS011;13368;52.346;4.678;2022-12-07T19:40:00;6.0;;;2.6;;
25443;SDS011;13368;52.346;4.678;2022-12-07T19:45:00;2.9;;;2.2;;
25443;SDS011;13368;52.346;4.678;2022-12-07T19:50:00;7.4;;;2.9;;
25443;SDS011;13368;52.346;4.678;2022-12-07T19:55:00;4.8;;;2.8;;
25443;SDS011;13368;52.346;4.678;2022-12-07T20:00:00;9.2;;;3.2;;
25443;SDS011;13368;52.346;4.678;2022-12-07T20:05:00;3.9;;;2.4;;
25443;SDS011;13368;52.346;4.678;2022-12-07T20:10:00;5.7;;;2.6;;
25443;SDS011;13368;52.346;4.678;2022-12-07T20:15:00;6.6;;;4.2;;
25443;SDS011;13368;52.346;4.678;2022-12-07T20:20:00;8.2;;;3.7;;
25443;SDS011;13368;52.346;4.678;2022-12-07T20:25:00;6.4;;;3.2;;
25443;SDS011;13368;52.346;4.678;2022-12-07T20:30:00;7.5;;;4.1;;
25443;SDS011;13368;52.346;4.678;2022-12-07T20:35:00;9.4;;;5.2;;
25443;SDS011;13368;52.346;4.678;2022-12-07T20:40:00;7.9;;;4.4;;
25443;SDS011;13368;52.346;4.678;2022-12-07T20:45:00;8.7;;;3.7;;
25443;SDS011;13368;52.346;4.678;2022-12-07T20:50:00;7.1;;;3.5;;
25443;SDS011;13368;52.346;4.678;2022-12-07T20:55:00;10.1;;;4.3;;
25443;SDS011;13368;52.346;4.678;2022-12-07T21:00:00;12.2;;;4.1;;
25443;SDS011;13368;52.346;4.678;2022-12-07T21:05:00;15.6;;;7.6;;
25443;SDS011;13368;52.346;4.678;2022-12-07T21:10:00;9.4;;;4.1;;
25443;SDS011;13368;52.346;4.678;2022-12-07T21:15:00;8.3;;;4.0;;
25443;SDS011;13368;52.346;4.678;2022-12-07T21:20:00;7.0;;;3.7;;
25443;SDS011;13368;52.346;4.678;2022-12-07T21:25:00;12.1;;;3.7;;
25443;SDS011;13368;52.346;4.678;2022-12-07T21:30:00;7.7;;;4.3;;
25443;SDS011;13368;52.346;4.678;2022-12-07T21:35:00;8.5;;;4.0;;
25443;SDS011;13368;52.346;4.678;2022-12-07T21:40:00;8.4;;;3.9;;
25443;SDS011;13368;52.346;4.678;2022-12-07T21:45:00;7.2;;;3.7;;
25443;SDS011;13368;52.346;4.678;2022-12-07T21:50:00;3.8;;;2.8;;
25443;SDS011;13368;52.346;4.678;2022-12-07T21:55:00;5.1;;;2.5;;
25443;SDS011;13368;52.346;4.678;2022-12-07T22:00:00;4.9;;;2.8;;
25443;SDS011;13368;52.346;4.678;2022-12-07T22:05:00;7.0;;;3.4;;
25443;SDS011;13368;52.346;4.678;2022-12-07T22:10:00;9.4;;;2.4;;
25443;SDS011;13368;52.346;4.678;2022-12-07T22:15:00;4.5;;;2.8;;
25443;SDS011;13368;52.346;4.678;2022-12-07T22:20:00;3.9;;;2.1;;
25443;SDS011;13368;52.346;4.678;2022-12-07T22:25:00;6.1;;;2.4;;
25443;SDS011;13368;52.346;4.678;2022-12-07T22:30:00;4.7;;;2.1;;
25443;SDS011;13368;52.346;4.678;2022-12-07T22:35:00;5.8;;;2.8;;
25443;SDS011;13368;52.346;4.678;2022-12-07T22:40:00;12.7;;;4.2;;
25443;SDS011;13368;52.346;4.678;2022-12-07T22:45:00;7.0;;;2.8;;
25443;SDS011;13368;52.346;4.678;2022-12-07T22:50:00;6.7;;;2.9;;
25443;SDS011;13368;52.346;4.678;2022-12-07T22:55:00;5.3;;;3.1;;
25443;SDS011;13368;52.346;4.678;2022-12-07T23:00:00;9.1;;;3.5;;
25443;SDS011;13368;52.346;4.678;2022-12-07T23:05:00;8.6;;;3.4;;
25443;SDS011;13368;52.346;4.678;2022-12-07T23:10:00;7.1;;;3.3;;
25443;SDS011;13368;52.346;4.678;2022-12-07T23:15:00;8.1;;;2.4;;
25443;SDS011;13368;52.346;4.678;2022-12-07T23:20:00;6.7;;;2.3;;
25443;SDS011;13368;52.346;4.678;2022-12-07T23:25:00;6.4;;;2.0;;
25443;SDS011;13368;52.346;4.678;2022-12-07T23:30:00;5.3;;;1.8;;
25443;SDS011;13368;52.346;4.678;2022-12-07T23:35:00;3.5;;;1.9;;
25443;SDS011;13368;52.346;4.678;2022-12-07T23:40:00;2.9;;;1.4;;
25443;SDS011;13368;52.346;4.678;2022-12-07T23:45:00;2.0;;;1.8;;
25443;SDS011;13368;52.346;4.678;2022-12-07T23:50:00;5.5;;;1.5;;
25443;SDS011;13368;52.346;4.678;2022-12-07T23:55:00;8.1;;;1.7;;
